Time;durP1;ratioP1;P1;durP2;ratioP2;P2;SDS_P1;SDS_P2;PMS_P1;PMS_P2;Temp;Humidity;BMP_temperature;BMP_pressure;BME280_temperature;BME280_humidity;BME280_pressure;Samples;Min_cycle;Max_cycle;Signal;HPM_P1;HPM_P2
2021/06/03 00:02:09;;;;;;;5.80;2.30;;;;;;;14.36;54.92;100772.34;1732393;81;21008;-52
2021/06/03 00:04:35;;;;;;;6.60;2.33;;;;;;;14.38;54.83;100773.10;1735935;81;20912;-50
2021/06/03 00:07:03;;;;;;;3.92;1.80;;;;;;;14.40;54.86;100777.39;1729253;81;21408;-50
2021/06/03 00:09:30;;;;;;;4.40;1.98;;;;;;;14.44;54.66;100772.69;1725376;81;20995;-48
2021/06/03 00:11:57;;;;;;;4.00;1.70;;;;;;;14.46;54.34;100776.09;1734525;81;20945;-49
2021/06/03 00:14:26;;;;;;;5.00;2.20;;;;;;;14.48;54.21;100775.52;1728892;81;20975;-50
2021/06/03 00:16:52;;;;;;;5.10;1.87;;;;;;;14.52;54.01;100782.88;1734173;82;20952;-49
2021/06/03 00:19:20;;;;;;;5.90;2.77;;;;;;;14.53;53.86;100780.56;1734009;82;20964;-44
2021/06/03 00:21:46;;;;;;;4.62;1.95;;;;;;;14.55;53.69;100785.38;1734520;81;20956;-44
2021/06/03 00:24:14;;;;;;;3.12;1.77;;;;;;;14.57;53.47;100783.45;1728636;81;20956;-42
2021/06/03 00:26:42;;;;;;;4.08;2.08;;;;;;;14.58;53.17;100792.72;1731777;81;20961;-43
2021/06/03 00:29:10;;;;;;;3.70;1.92;;;;;;;14.61;53.02;100780.91;1705242;83;21013;-44
2021/06/03 00:31:37;;;;;;;2.95;1.95;;;;;;;14.62;53.10;100782.64;1723523;81;20953;-44
2021/06/03 00:34:04;;;;;;;2.55;1.60;;;;;;;14.62;52.89;100785.33;1728468;81;21004;-47
2021/06/03 00:36:30;;;;;;;5.80;2.50;;;;;;;14.61;52.71;100783.10;1729139;81;21331;-44
2021/06/03 00:38:58;;;;;;;3.47;1.50;;;;;;;14.59;52.45;100782.37;1727659;81;20980;-48
2021/06/03 00:41:24;;;;;;;3.00;1.72;;;;;;;14.58;52.23;100783.81;1729447;81;20948;-48
2021/06/03 00:43:52;;;;;;;3.17;1.72;;;;;;;14.58;52.56;100787.84;1728010;81;20988;-44
2021/06/03 00:46:19;;;;;;;3.67;1.90;;;;;;;14.57;52.55;100788.33;1726914;81;21003;-45
2021/06/03 00:48:47;;;;;;;6.00;2.00;;;;;;;14.58;52.51;100788.69;1725906;81;20978;-45
2021/06/03 00:51:13;;;;;;;4.33;1.87;;;;;;;14.57;52.06;100788.82;1729001;81;21043;-43
2021/06/03 00:53:43;;;;;;;6.65;2.37;;;;;;;14.56;52.29;100791.11;1704827;81;22198;-47
2021/06/03 00:56:11;;;;;;;7.50;1.90;;;;;;;14.56;52.46;100794.64;1709091;82;20956;-50
2021/06/03 00:58:39;;;;;;;4.60;1.77;;;;;;;14.56;52.31;100791.11;1723862;81;21019;-44
2021/06/03 01:01:08;;;;;;;3.60;1.62;;;;;;;14.54;52.55;100787.21;1729303;81;21025;-45
2021/06/03 01:03:36;;;;;;;6.90;2.60;;;;;;;14.52;52.41;100789.11;1726855;81;20958;-44
2021/06/03 01:06:07;;;;;;;7.05;3.17;;;;;;;14.48;52.51;100788.44;1731046;82;20988;-45
2021/06/03 01:08:42;;;;;;;7.87;7.05;;;;;;;14.46;52.65;100792.20;1726511;81;21823;-42
2021/06/03 01:11:18;;;;;;;3.27;2.02;;;;;;;14.47;52.92;100787.23;1729630;81;20948;-43
2021/06/03 01:14:14;;;;;;;1.92;1.50;;;;;;;14.46;52.66;100786.83;1723396;81;20972;-43
2021/06/03 01:16:43;;;;;;;3.17;1.55;;;;;;;14.43;52.70;100795.09;1709703;81;20987;-49
2021/06/03 01:19:15;;;;;;;4.22;1.98;;;;;;;14.38;52.60;100794.08;1709753;81;20956;-49
2021/06/03 01:22:06;;;;;;;4.87;1.92;;;;;;;14.35;52.52;100794.30;1729425;82;20981;-48
2021/06/03 01:24:47;;;;;;;7.22;2.10;;;;;;;14.31;52.82;100794.12;1667927;84;21510;-45
2021/06/03 01:27:20;;;;;;;3.22;1.52;;;;;;;14.29;53.13;100785.34;1661686;84;21039;-45
2021/06/03 01:30:13;;;;;;;4.28;2.02;;;;;;;14.25;53.17;100790.05;1668951;84;20976;-48
2021/06/03 01:32:47;;;;;;;2.65;1.45;;;;;;;14.22;53.06;100790.27;1659870;84;21504;-46
2021/06/03 01:35:25;;;;;;;3.08;2.17;;;;;;;14.19;53.21;100796.33;1661568;84;21737;-47
2021/06/03 01:37:52;;;;;;;6.80;2.00;;;;;;;14.19;53.55;100790.97;1665010;84;21051;-45
2021/06/03 01:40:21;;;;;;;8.50;2.72;;;;;;;14.19;53.94;100792.31;1656705;84;20979;-46
2021/06/03 01:42:48;;;;;;;4.20;2.08;;;;;;;14.15;53.81;100790.30;1646532;85;21017;-46
2021/06/03 01:45:16;;;;;;;3.02;2.00;;;;;;;14.11;53.91;100795.52;1667531;84;21009;-47
2021/06/03 01:47:44;;;;;;;1.90;1.62;;;;;;;14.07;53.98;100793.51;1662661;84;21471;-45
2021/06/03 01:50:13;;;;;;;4.10;1.70;;;;;;;14.04;53.94;100802.25;1670213;84;20999;-46
2021/06/03 01:52:42;;;;;;;2.80;1.90;;;;;;;14.01;54.10;100794.39;1647237;85;21544;-45
2021/06/03 01:55:11;;;;;;;3.08;2.08;;;;;;;13.99;53.98;100797.20;1668030;84;20987;-44
2021/06/03 01:57:39;;;;;;;8.15;2.30;;;;;;;13.98;54.04;100799.48;1663560;84;21921;-44
2021/06/03 02:00:11;;;;;;;3.50;2.08;;;;;;;13.99;54.48;100801.71;1674990;82;20987;-45
2021/06/03 02:02:39;;;;;;;3.20;1.95;;;;;;;13.96;54.43;100798.76;1735484;81;21019;-43
2021/06/03 02:05:08;;;;;;;4.78;2.22;;;;;;;13.93;54.33;100798.94;1738599;81;21478;-42
2021/06/03 02:07:35;;;;;;;2.65;1.42;;;;;;;13.91;54.50;100809.39;1743292;81;21019;-47
2021/06/03 02:10:05;;;;;;;3.80;1.82;;;;;;;13.89;54.78;100808.17;1737966;81;21305;-46
2021/06/03 02:12:35;;;;;;;3.97;1.70;;;;;;;13.88;54.87;100799.73;1738682;81;20968;-45
2021/06/03 02:15:06;;;;;;;3.87;1.77;;;;;;;13.85;54.86;100802.13;1740019;81;20952;-43
2021/06/03 02:17:47;;;;;;;4.05;1.87;;;;;;;13.82;54.96;100806.37;1752119;81;20960;-43
2021/06/03 02:20:24;;;;;;;4.75;2.27;;;;;;;13.83;54.82;100808.56;1735083;81;20971;-43
2021/06/03 02:22:51;;;;;;;5.17;2.22;;;;;;;13.84;54.78;100810.30;1748770;80;20936;-44
2021/06/03 02:25:18;;;;;;;6.03;1.72;;;;;;;13.84;54.67;100808.96;1746942;81;20963;-46
2021/06/03 02:27:45;;;;;;;3.90;2.50;;;;;;;13.85;54.77;100805.30;1751356;80;21550;-44
2021/06/03 02:30:14;;;;;;;6.33;2.98;;;;;;;13.84;54.74;100817.00;1741233;80;21362;-45
2021/06/03 02:32:41;;;;;;;3.77;2.42;;;;;;;13.83;54.61;100817.48;1739933;81;20977;-43
2021/06/03 02:35:11;;;;;;;2.92;1.60;;;;;;;13.83;54.76;100818.83;1738252;81;20952;-46
2021/06/03 02:37:39;;;;;;;2.87;1.93;;;;;;;13.81;54.53;100817.21;1737332;81;21022;-46
2021/06/03 02:40:14;;;;;;;5.00;2.08;;;;;;;13.81;54.77;100817.21;1739907;81;20955;-46
2021/06/03 02:42:43;;;;;;;4.67;2.25;;;;;;;13.80;54.79;100821.69;1739490;80;21034;-45
2021/06/03 02:45:13;;;;;;;3.75;1.87;;;;;;;13.81;54.78;100822.58;1738064;81;21849;-41
2021/06/03 02:47:41;;;;;;;4.42;2.20;;;;;;;13.81;54.75;100819.41;1708976;81;21053;-41
2021/06/03 02:50:13;;;;;;;3.42;1.80;;;;;;;13.81;54.75;100825.25;1696196;82;21563;-43
2021/06/03 02:52:42;;;;;;;2.17;1.72;;;;;;;13.81;54.86;100826.59;1668135;84;20970;-45
2021/06/03 02:55:13;;;;;;;2.47;1.65;;;;;;;13.82;54.93;100830.49;1663150;83;20987;-44
2021/06/03 02:57:40;;;;;;;3.62;1.75;;;;;;;13.84;55.02;100828.58;1698418;83;21753;-46
2021/06/03 03:00:12;;;;;;;2.25;1.50;;;;;;;13.85;55.20;100836.13;1697261;82;21027;-42
2021/06/03 03:02:39;;;;;;;3.08;2.00;;;;;;;13.84;55.44;100839.78;1677390;83;21008;-44
2021/06/03 03:05:07;;;;;;;4.78;2.25;;;;;;;13.81;55.63;100835.98;1707809;83;20981;-44
2021/06/03 03:07:35;;;;;;;3.75;2.42;;;;;;;13.81;55.85;100831.95;1700835;83;21590;-43
2021/06/03 03:10:05;;;;;;;3.40;2.15;;;;;;;13.80;55.91;100832.41;1701000;83;20971;-43
2021/06/03 03:12:33;;;;;;;2.05;1.52;;;;;;;13.80;56.19;100830.22;1698068;82;20965;-45
2021/06/03 03:15:01;;;;;;;3.20;2.08;;;;;;;13.80;56.19;100832.41;1702918;83;21799;-44
2021/06/03 03:17:28;;;;;;;5.05;1.77;;;;;;;13.79;55.93;100832.53;1672926;83;21739;-45
2021/06/03 03:19:55;;;;;;;5.35;3.05;;;;;;;13.78;56.34;100830.79;1705769;82;20945;-45
2021/06/03 03:22:22;;;;;;;2.27;1.98;;;;;;;13.78;56.57;100834.81;1697079;82;21525;-45
2021/06/03 03:24:49;;;;;;;5.22;2.10;;;;;;;13.78;56.63;100832.13;1700177;83;20991;-47
2021/06/03 03:27:16;;;;;;;3.00;1.90;;;;;;;13.78;56.74;100833.47;1696381;83;21007;-50
2021/06/03 03:29:43;;;;;;;3.67;2.02;;;;;;;13.79;56.96;100840.57;1699916;82;20996;-50
2021/06/03 03:32:11;;;;;;;5.00;2.60;;;;;;;13.79;56.92;100836.55;1706679;83;21531;-48
2021/06/03 03:34:37;;;;;;;4.80;2.33;;;;;;;13.80;57.28;100832.41;1699693;83;20940;-49
2021/06/03 03:37:04;;;;;;;7.03;2.15;;;;;;;13.84;57.54;100838.44;1702614;83;21011;-47
2021/06/03 03:39:32;;;;;;;4.78;2.62;;;;;;;13.87;57.15;100834.22;1697556;83;20964;-46
2021/06/03 03:41:58;;;;;;;3.92;1.85;;;;;;;13.90;57.38;100829.13;1705715;82;20985;-48
2021/06/03 03:44:26;;;;;;;2.85;2.08;;;;;;;13.92;57.24;100832.08;1705247;83;21534;-48
2021/06/03 03:46:53;;;;;;;3.58;1.67;;;;;;;13.94;56.92;100829.31;1682441;83;20971;-51
2021/06/03 03:49:22;;;;;;;4.15;2.00;;;;;;;13.95;57.22;100823.83;1721411;81;21028;-52
2021/06/03 03:51:49;;;;;;;4.58;2.20;;;;;;;13.98;57.11;100823.61;1724606;81;21028;-47
2021/06/03 03:54:17;;;;;;;13.90;3.35;;;;;;;14.00;56.83;100836.44;1726979;81;20990;-46
2021/06/03 03:56:46;;;;;;;4.28;2.15;;;;;;;14.01;56.89;100830.59;1729074;81;21004;-43
2021/06/03 03:59:12;;;;;;;2.60;1.80;;;;;;;14.03;57.09;100834.89;1729349;81;21448;-44
2021/06/03 04:01:39;;;;;;;3.80;1.65;;;;;;;14.06;57.40;100841.41;1725529;81;20984;-45
2021/06/03 04:04:07;;;;;;;2.87;1.90;;;;;;;14.10;57.40;100844.73;1720695;81;21507;-46
2021/06/03 04:06:38;;;;;;;2.52;1.95;;;;;;;14.13;57.72;100843.17;1719815;81;20945;-45
2021/06/03 04:09:05;;;;;;;5.58;2.30;;;;;;;14.18;57.87;100845.06;1727575;81;20920;-44
2021/06/03 04:11:33;;;;;;;4.42;2.20;;;;;;;14.22;57.89;100837.69;1722877;81;20948;-46
2021/06/03 04:14:00;;;;;;;3.40;2.35;;;;;;;14.27;57.48;100844.94;1723916;81;20984;-45
2021/06/03 04:16:27;;;;;;;3.25;1.70;;;;;;;14.29;57.80;100842.53;1717805;81;21414;-46
2021/06/03 04:18:55;;;;;;;2.20;1.85;;;;;;;14.34;57.99;100835.51;1721179;81;20932;-48
2021/06/03 04:21:23;;;;;;;4.00;1.98;;;;;;;14.36;57.95;100837.58;1707938;81;20984;-46
2021/06/03 04:23:52;;;;;;;3.45;1.50;;;;;;;14.40;57.91;100844.95;1722366;81;20937;-43
2021/06/03 04:26:18;;;;;;;2.80;1.75;;;;;;;14.45;57.88;100850.86;1720473;81;20961;-46
2021/06/03 04:28:45;;;;;;;5.17;1.80;;;;;;;14.52;57.49;100854.84;1720327;81;21012;-45
2021/06/03 04:31:11;;;;;;;5.47;2.10;;;;;;;14.58;57.32;100850.90;1725538;81;20995;-46
2021/06/03 04:33:38;;;;;;;6.58;2.02;;;;;;;14.63;56.97;100850.95;1724679;81;21323;-48
2021/06/03 04:36:05;;;;;;;3.65;1.62;;;;;;;14.70;55.67;100850.05;1717932;81;21007;-45
2021/06/03 04:38:31;;;;;;;3.90;1.65;;;;;;;14.75;55.75;100853.27;1719798;81;20953;-45
2021/06/03 04:40:58;;;;;;;3.77;2.08;;;;;;;14.80;55.61;100856.48;1722573;81;21537;-46
2021/06/03 04:43:27;;;;;;;4.15;1.67;;;;;;;14.86;54.57;100851.16;1722830;81;21000;-45
2021/06/03 04:46:06;;;;;;;4.30;1.82;;;;;;;14.91;53.35;100847.18;1722293;81;21363;-43
2021/06/03 04:48:37;;;;;;;2.83;1.60;;;;;;;14.98;53.28;100849.45;1725734;81;20992;-42
2021/06/03 04:51:05;;;;;;;3.98;1.85;;;;;;;15.05;53.09;100849.39;1729497;81;21028;-42
2021/06/03 04:53:32;;;;;;;3.90;1.77;;;;;;;15.11;52.95;100853.81;1727094;81;21758;-43
2021/06/03 04:55:58;;;;;;;4.65;1.87;;;;;;;15.18;52.50;100848.88;1728595;81;20996;-47
2021/06/03 04:58:27;;;;;;;3.75;2.00;;;;;;;15.24;51.81;100854.28;1729606;81;20976;-42
2021/06/03 05:00:53;;;;;;;5.28;2.02;;;;;;;15.28;51.68;100855.30;1733275;81;20962;-42
2021/06/03 05:03:20;;;;;;;6.65;1.90;;;;;;;15.34;51.61;100857.53;1674052;84;21004;-41
2021/06/03 05:05:49;;;;;;;5.30;2.65;;;;;;;15.42;52.27;100851.63;1693704;83;21359;-53
2021/06/03 05:08:16;;;;;;;7.30;2.10;;;;;;;15.50;51.39;100860.47;1734066;81;20961;-47
2021/06/03 05:10:42;;;;;;;3.17;1.85;;;;;;;15.58;50.85;100851.35;1734855;81;21799;-44
2021/06/03 05:13:10;;;;;;;3.08;1.50;;;;;;;15.66;51.64;100857.50;1733259;81;21026;-45
2021/06/03 05:15:38;;;;;;;2.72;1.60;;;;;;;15.72;51.98;100860.64;1730661;81;20977;-44
2021/06/03 05:18:06;;;;;;;4.42;1.67;;;;;;;15.79;51.40;100856.50;1732845;82;21036;-45
2021/06/03 05:20:37;;;;;;;3.17;1.77;;;;;;;15.87;51.93;100857.27;1730002;81;20986;-50
2021/06/03 05:23:04;;;;;;;2.15;1.52;;;;;;;15.93;50.38;100861.36;1729366;81;21485;-44
2021/06/03 05:25:32;;;;;;;4.20;1.80;;;;;;;15.99;50.60;100859.04;1733311;81;20988;-44
2021/06/03 05:28:00;;;;;;;2.70;1.72;;;;;;;16.04;49.34;100864.08;1733096;81;21023;-45
2021/06/03 05:30:26;;;;;;;3.12;1.98;;;;;;;16.08;48.65;100866.92;1727099;81;20964;-45
2021/06/03 05:32:53;;;;;;;8.73;1.82;;;;;;;16.11;48.42;100869.38;1734597;81;21006;-48
2021/06/03 05:35:20;;;;;;;2.45;1.40;;;;;;;16.14;48.58;100869.13;1710789;81;20936;-49
2021/06/03 05:37:47;;;;;;;3.08;1.98;;;;;;;16.17;48.61;100868.05;1732897;81;20949;-43
2021/06/03 05:40:18;;;;;;;6.58;2.50;;;;;;;16.19;48.61;100875.02;1729914;81;20952;-43
2021/06/03 05:42:47;;;;;;;5.50;1.57;;;;;;;16.22;48.94;100869.41;1731879;80;21031;-44
2021/06/03 05:45:14;;;;;;;5.78;2.00;;;;;;;16.27;48.42;100873.09;1728123;81;20989;-49
2021/06/03 05:47:43;;;;;;;3.15;1.62;;;;;;;16.32;47.83;100871.40;1730730;81;21024;-48
2021/06/03 05:50:13;;;;;;;4.37;2.52;;;;;;;16.33;47.67;100876.67;1729032;81;21051;-42
2021/06/03 05:52:40;;;;;;;3.10;1.50;;;;;;;16.39;48.39;100874.00;1725680;81;20960;-41
2021/06/03 05:55:10;;;;;;;1.87;1.70;;;;;;;16.44;49.93;100870.47;1729249;81;20930;-42
2021/06/03 05:57:38;;;;;;;2.67;1.60;;;;;;;16.50;48.08;100869.98;1736086;81;20968;-47
2021/06/03 06:00:17;;;;;;;4.25;1.40;;;;;;;16.55;47.14;100875.01;1731072;82;20912;-48
2021/06/03 06:08:01;;;;;;;3.55;1.57;;;;;;;16.66;48.14;100871.86;1733276;81;21228;-46
2021/06/03 06:10:30;;;;;;;3.02;1.60;;;;;;;16.74;48.53;100873.95;1731560;81;21003;-44
2021/06/03 06:12:56;;;;;;;4.30;1.72;;;;;;;16.81;47.54;100869.84;1736903;81;21109;-45
2021/06/03 06:15:24;;;;;;;5.20;2.25;;;;;;;16.87;46.74;100883.31;1734719;81;20954;-44
2021/06/03 06:17:51;;;;;;;3.80;1.80;;;;;;;16.90;46.38;100870.94;1734260;81;20973;-45
2021/06/03 06:20:18;;;;;;;2.77;1.75;;;;;;;16.95;46.11;100872.78;1732033;81;20980;-47
2021/06/03 06:22:46;;;;;;;3.95;1.85;;;;;;;16.99;46.34;100870.22;1735021;81;21495;-45
2021/06/03 06:25:12;;;;;;;6.37;1.85;;;;;;;17.06;45.98;100874.15;1729791;81;20979;-45
2021/06/03 06:27:39;;;;;;;3.42;1.55;;;;;;;17.12;45.72;100875.48;1737233;81;21015;-48
2021/06/03 06:30:09;;;;;;;4.12;1.70;;;;;;;17.16;47.00;100865.31;1733912;81;20931;-49
2021/06/03 06:32:36;;;;;;;3.08;1.60;;;;;;;17.22;45.78;100885.05;1729536;81;20957;-51
2021/06/03 06:35:03;;;;;;;3.50;1.80;;;;;;;17.26;45.58;100874.37;1733111;81;20974;-48
2021/06/03 06:37:30;;;;;;;3.00;1.40;;;;;;;17.30;46.03;100880.74;1733497;81;20960;-44
2021/06/03 06:39:57;;;;;;;4.03;1.50;;;;;;;17.33;45.80;100880.98;1732053;81;21483;-46
2021/06/03 06:42:24;;;;;;;4.05;1.27;;;;;;;17.37;45.89;100870.34;1732293;81;21043;-45
2021/06/03 06:44:51;;;;;;;2.72;1.72;;;;;;;17.43;46.17;100878.41;1729410;82;20960;-45
2021/06/03 06:47:18;;;;;;;2.70;1.80;;;;;;;17.50;46.34;100868.84;1735234;81;21463;-46
2021/06/03 06:49:45;;;;;;;3.85;1.92;;;;;;;17.56;45.36;100870.17;1736218;82;21001;-45
2021/06/03 06:52:12;;;;;;;3.77;1.70;;;;;;;17.61;45.12;100862.06;1740842;81;21016;-45
2021/06/03 06:54:39;;;;;;;3.95;1.37;;;;;;;17.70;43.90;100864.52;1740788;81;21415;-47
2021/06/03 06:57:08;;;;;;;2.77;1.70;;;;;;;17.75;43.92;100867.69;1709980;83;20942;-44
2021/06/03 06:59:34;;;;;;;5.15;1.50;;;;;;;17.83;43.27;100869.78;1740307;81;20975;-46
2021/06/03 07:02:01;;;;;;;3.83;1.45;;;;;;;17.89;42.32;100870.61;1740930;81;20928;-44
2021/06/03 07:04:28;;;;;;;1.95;1.75;;;;;;;17.93;42.77;100862.64;1736066;81;21008;-46
2021/06/03 07:06:54;;;;;;;3.30;1.25;;;;;;;18.01;43.46;100860.15;1736253;81;20983;-43
2021/06/03 07:09:23;;;;;;;5.00;1.55;;;;;;;18.08;42.05;100869.95;1741468;81;20956;-43
2021/06/03 07:11:50;;;;;;;2.10;1.10;;;;;;;18.12;43.27;100868.71;1739607;81;20969;-43
2021/06/03 07:14:16;;;;;;;3.72;1.75;;;;;;;18.18;43.84;100867.33;1740173;80;20967;-43
2021/06/03 07:16:43;;;;;;;3.22;1.67;;;;;;;18.25;41.97;100865.83;1737003;81;21534;-42
2021/06/03 07:19:10;;;;;;;4.58;1.70;;;;;;;18.31;43.57;100868.00;1737690;81;21551;-44
2021/06/03 07:21:38;;;;;;;3.17;1.42;;;;;;;18.39;41.29;100872.24;1744557;81;20943;-50
2021/06/03 07:24:07;;;;;;;4.20;1.50;;;;;;;18.43;41.19;100872.86;1742688;81;20956;-47
2021/06/03 07:26:33;;;;;;;3.90;1.52;;;;;;;18.45;40.53;100870.89;1744350;81;20948;-48
2021/06/03 07:29:05;;;;;;;4.60;1.92;;;;;;;18.48;41.91;100869.27;1740359;81;20935;-51
2021/06/03 07:31:35;;;;;;;4.80;1.60;;;;;;;18.51;43.71;100869.84;1732390;81;20980;-52
2021/06/03 07:34:04;;;;;;;4.03;1.47;;;;;;;18.60;42.24;100875.81;1740201;81;20968;-44
2021/06/03 07:36:35;;;;;;;3.25;1.72;;;;;;;18.67;41.77;100881.55;1736706;81;21749;-47
2021/06/03 07:39:06;;;;;;;2.67;1.40;;;;;;;18.72;42.42;100875.73;1741580;81;21164;-44
2021/06/03 07:41:35;;;;;;;2.58;1.47;;;;;;;18.78;41.50;100866.64;1745644;81;21382;-46
2021/06/03 07:44:03;;;;;;;4.85;1.85;;;;;;;18.84;41.99;100859.84;1735697;81;21011;-43
2021/06/03 07:46:30;;;;;;;2.10;1.35;;;;;;;18.88;40.66;100861.80;1737199;81;20948;-47
2021/06/03 07:48:57;;;;;;;4.42;2.75;;;;;;;18.90;41.58;100871.95;1735731;81;20968;-42
2021/06/03 07:51:23;;;;;;;5.05;1.47;;;;;;;18.94;42.43;100862.09;1724230;81;21028;-47
2021/06/03 07:53:50;;;;;;;3.27;1.77;;;;;;;19.00;39.57;100879.14;1722836;81;21011;-45
2021/06/03 07:56:17;;;;;;;7.97;1.60;;;;;;;19.02;39.34;100870.87;1727398;81;21008;-45
2021/06/03 07:58:43;;;;;;;1.80;1.20;;;;;;;19.02;40.55;100870.41;1724966;81;20948;-43
2021/06/03 08:01:10;;;;;;;2.02;1.65;;;;;;;19.07;40.02;100866.42;1708844;81;20941;-44
2021/06/03 08:03:37;;;;;;;5.62;1.27;;;;;;;19.09;40.38;100865.30;1722897;81;20933;-47
2021/06/03 08:06:04;;;;;;;4.25;1.80;;;;;;;19.15;39.31;100857.14;1722877;81;20982;-52
2021/06/03 08:08:43;;;;;;;2.00;1.35;;;;;;;19.18;39.55;100858.24;1724007;81;21044;-49
2021/06/03 08:11:13;;;;;;;3.33;1.42;;;;;;;19.21;40.18;100870.97;1726176;81;21060;-43
2021/06/03 08:13:39;;;;;;;3.15;1.57;;;;;;;19.28;38.42;100863.66;1723678;81;21546;-48
2021/06/03 08:16:07;;;;;;;6.03;1.40;;;;;;;19.30;39.75;100865.73;1723582;81;21004;-44
2021/06/03 08:18:35;;;;;;;4.53;1.77;;;;;;;19.32;39.77;100861.05;1730190;81;20992;-45
2021/06/03 08:21:04;;;;;;;3.85;1.40;;;;;;;19.37;40.03;100879.91;1721800;81;20982;-42
2021/06/03 08:23:32;;;;;;;1.82;1.30;;;;;;;19.38;38.50;100865.42;1732107;81;20954;-45
2021/06/03 08:25:59;;;;;;;6.15;1.37;;;;;;;19.43;38.33;100870.42;1722006;81;20985;-53
2021/06/03 08:28:26;;;;;;;4.75;1.50;;;;;;;19.48;37.65;100878.09;1730765;81;20956;-44
2021/06/03 08:30:56;;;;;;;2.50;1.40;;;;;;;19.52;38.46;100864.67;1726525;81;20968;-42
2021/06/03 08:33:24;;;;;;;3.80;1.40;;;;;;;19.60;38.41;100866.18;1726639;81;20987;-46
2021/06/03 08:35:51;;;;;;;2.35;1.17;;;;;;;19.65;38.09;100875.61;1723247;81;21000;-45
2021/06/03 08:38:17;;;;;;;5.87;1.52;;;;;;;19.66;38.77;100880.02;1727829;81;21587;-52
2021/06/03 08:40:47;;;;;;;10.35;1.95;;;;;;;19.69;38.10;100866.73;1729419;81;20996;-45
2021/06/03 08:43:14;;;;;;;2.12;1.37;;;;;;;19.75;39.04;100867.52;1728735;81;21037;-41
2021/06/03 08:45:43;;;;;;;2.45;1.47;;;;;;;19.83;37.99;100865.47;1725217;81;20991;-49
2021/06/03 08:48:10;;;;;;;2.33;1.60;;;;;;;19.83;38.19;100874.94;1728516;81;20972;-44
2021/06/03 08:50:39;;;;;;;3.15;1.35;;;;;;;19.78;37.72;100871.80;1734305;81;20968;-44
2021/06/03 08:53:07;;;;;;;6.42;2.00;;;;;;;19.70;38.39;100875.70;1743373;81;21439;-43
2021/06/03 08:58:23;;;;;;;2.22;1.55;;;;;;;19.65;39.29;100874.73;1743599;80;21465;-46
2021/06/03 09:00:50;;;;;;;4.20;1.80;;;;;;;19.67;38.00;100878.19;1740094;81;21031;-47
2021/06/03 09:03:17;;;;;;;5.08;1.65;;;;;;;19.64;37.65;100874.38;1742767;81;20999;-44
2021/06/03 09:05:44;;;;;;;2.30;1.60;;;;;;;19.59;37.29;100881.55;1732968;80;21051;-46
2021/06/03 09:08:28;;;;;;;2.37;1.32;;;;;;;19.57;37.04;100876.78;1738916;80;21420;-45
2021/06/03 09:11:01;;;;;;;2.67;1.55;;;;;;;19.59;37.18;100878.85;1739860;80;21315;-46
2021/06/03 09:13:33;;;;;;;1.98;1.35;;;;;;;19.61;36.54;100869.26;1744440;80;20970;-47
2021/06/03 09:16:13;;;;;;;3.05;1.50;;;;;;;19.64;37.74;100871.68;1741590;80;21016;-45
2021/06/03 09:18:48;;;;;;;9.15;1.55;;;;;;;19.73;38.51;100876.30;1711655;81;20976;-42
2021/06/03 09:21:28;;;;;;;2.12;1.37;;;;;;;19.83;38.08;100864.99;1715728;81;20972;-47
2021/06/03 09:24:00;;;;;;;3.22;1.85;;;;;;;19.94;37.52;100877.53;1711522;82;21031;-48
2021/06/03 09:26:29;;;;;;;3.83;1.30;;;;;;;20.05;37.69;100870.61;1716351;81;20995;-48
2021/06/03 09:28:59;;;;;;;4.35;1.27;;;;;;;20.16;37.73;100868.77;1703160;82;20985;-49
2021/06/03 09:31:29;;;;;;;12.53;3.00;;;;;;;20.25;37.46;100878.75;1705921;81;20944;-50
2021/06/03 09:34:01;;;;;;;4.85;1.98;;;;;;;20.33;36.42;100881.59;1707823;82;20983;-46
2021/06/03 09:36:43;;;;;;;6.85;1.20;;;;;;;20.38;36.95;100874.39;1713590;82;20968;-47
2021/06/03 09:39:28;;;;;;;6.53;1.77;;;;;;;20.40;37.21;100882.73;1707187;82;20986;-44
2021/06/03 09:42:01;;;;;;;1.47;1.07;;;;;;;20.42;36.94;100872.61;1710105;82;20940;-52
2021/06/03 09:44:38;;;;;;;2.52;1.30;;;;;;;20.39;34.67;100874.77;1704449;81;21576;-44
2021/06/03 09:47:12;;;;;;;1.62;1.27;;;;;;;20.31;35.66;100877.69;1705839;81;21547;-55
2021/06/03 09:49:45;;;;;;;3.90;1.57;;;;;;;20.17;35.38;100882.67;1711706;81;21505;-46
2021/06/03 09:52:15;;;;;;;1.98;1.37;;;;;;;20.02;36.00;100890.35;1710147;82;21371;-53
2021/06/03 09:54:50;;;;;;;4.90;1.17;;;;;;;19.90;36.19;100885.56;1661543;84;21069;-46
2021/06/03 09:57:18;;;;;;;1.70;1.10;;;;;;;19.83;35.22;100891.17;1673380;84;21582;-44
2021/06/03 09:59:47;;;;;;;3.65;1.10;;;;;;;19.79;35.91;100885.20;1736256;81;20972;-48
2021/06/03 10:02:20;;;;;;;1.67;1.07;;;;;;;19.76;36.94;100890.05;1740921;80;20948;-45
2021/06/03 10:04:50;;;;;;;5.12;1.30;;;;;;;19.75;37.12;100892.38;1743762;81;20957;-48
2021/06/03 10:07:26;;;;;;;5.35;1.50;;;;;;;19.71;36.38;100899.92;1743914;80;20999;-44
2021/06/03 10:10:08;;;;;;;2.22;1.20;;;;;;;19.64;36.67;100889.27;1745901;81;20968;-45
2021/06/03 10:12:40;;;;;;;4.55;1.45;;;;;;;19.61;37.47;100890.39;1743201;80;20960;-45
2021/06/03 10:15:23;;;;;;;2.60;1.15;;;;;;;19.61;36.95;100888.19;1742577;81;20956;-52
2021/06/03 10:18:01;;;;;;;2.95;1.87;;;;;;;19.64;37.07;100886.05;1740056;80;20960;-45
2021/06/03 10:20:37;;;;;;;2.00;1.37;;;;;;;19.74;38.01;100886.61;1734834;81;20995;-48
2021/06/03 10:23:10;;;;;;;4.12;1.52;;;;;;;19.90;38.85;100884.20;1740525;80;20999;-50
2021/06/03 10:25:37;;;;;;;1.37;1.10;;;;;;;20.05;37.98;100884.15;1743241;81;21030;-53
2021/06/03 10:28:14;;;;;;;5.83;1.50;;;;;;;20.14;36.96;100895.14;1734434;81;21070;-47
2021/06/03 10:30:49;;;;;;;3.83;1.35;;;;;;;20.10;35.91;100892.70;1738814;81;21043;-49
2021/06/03 10:33:19;;;;;;;4.62;1.70;;;;;;;20.00;36.47;100883.72;1744391;81;21435;-49
2021/06/03 10:35:50;;;;;;;2.77;1.35;;;;;;;19.88;36.19;100888.42;1742443;80;21027;-47
2021/06/03 10:38:18;;;;;;;6.15;1.80;;;;;;;19.82;36.19;100889.47;1737058;81;21462;-47
2021/06/03 10:40:57;;;;;;;3.92;1.30;;;;;;;19.77;35.89;100886.33;1737799;80;21479;-45
2021/06/03 10:43:24;;;;;;;3.90;1.60;;;;;;;19.76;36.75;100874.66;1733504;81;21056;-46
2021/06/03 10:45:51;;;;;;;4.50;1.10;;;;;;;19.79;35.88;100870.31;1729944;81;21009;-46
2021/06/03 10:48:18;;;;;;;3.02;1.57;;;;;;;19.82;35.81;100879.50;1737630;81;20996;-41
2021/06/03 10:50:52;;;;;;;5.72;1.37;;;;;;;19.86;38.48;100882.80;1740296;81;20948;-42
2021/06/03 10:53:26;;;;;;;6.05;1.70;;;;;;;19.90;37.06;100886.91;1738640;81;20993;-44
2021/06/03 10:55:55;;;;;;;2.90;1.70;;;;;;;19.91;37.35;100891.82;1741946;82;21016;-48
2021/06/03 10:58:33;;;;;;;4.00;1.20;;;;;;;19.89;36.76;100890.13;1740338;81;21031;-47
2021/06/03 11:01:08;;;;;;;1.30;1.10;;;;;;;19.88;37.73;100890.25;1745555;82;21008;-48
2021/06/03 11:03:55;;;;;;;2.70;1.10;;;;;;;19.88;38.35;100883.02;1742565;81;21891;-44
2021/06/03 11:06:22;;;;;;;4.30;1.40;;;;;;;19.90;37.81;100888.27;1740143;81;21491;-45
2021/06/03 11:09:02;;;;;;;3.35;1.95;;;;;;;19.96;36.57;100876.89;1745209;81;21510;-48
2021/06/03 11:11:36;;;;;;;2.85;1.50;;;;;;;20.03;36.43;100877.16;1740751;82;20972;-50
2021/06/03 11:14:11;;;;;;;2.27;1.27;;;;;;;20.13;38.80;100881.23;1741325;81;20989;-47
2021/06/03 11:16:44;;;;;;;2.20;1.30;;;;;;;20.25;37.04;100871.47;1742492;81;20940;-48
2021/06/03 11:19:12;;;;;;;3.85;1.80;;;;;;;20.36;38.27;100873.20;1741549;81;20988;-45
2021/06/03 11:21:47;;;;;;;4.17;1.42;;;;;;;20.47;37.45;100875.74;1740843;81;20956;-46
2021/06/03 11:24:35;;;;;;;3.08;1.20;;;;;;;20.53;37.67;100883.78;1651101;85;21560;-46
2021/06/03 11:27:14;;;;;;;2.83;1.42;;;;;;;20.59;36.90;100881.02;1680082;83;20968;-50
2021/06/03 11:29:54;;;;;;;3.40;1.27;;;;;;;20.57;35.92;100883.05;1683722;83;21507;-47
2021/06/03 11:32:28;;;;;;;2.55;1.30;;;;;;;20.55;37.09;100880.97;1684758;84;21447;-47
2021/06/03 11:35:04;;;;;;;3.12;1.50;;;;;;;20.56;37.43;100875.89;1648052;86;20969;-46
2021/06/03 11:37:46;;;;;;;7.37;1.27;;;;;;;20.63;37.93;100872.97;1675219;83;21558;-46
2021/06/03 11:40:23;;;;;;;2.62;1.80;;;;;;;20.65;36.15;100875.03;1683333;83;21802;-45
2021/06/03 11:43:06;;;;;;;2.22;0.90;;;;;;;20.53;34.95;100875.15;1682791;83;21383;-46
2021/06/03 11:45:41;;;;;;;3.98;1.32;;;;;;;20.49;36.00;100864.27;1679836;83;21507;-44